sensor_id;sensor_type;location;lat;lon;timestamp;pressure;altitude;pressure_sealevel;temperature;humidity
30618;BME280;17384;51.214;9.202;2023-07-09T00:00:50;99025.56;;;15.72;82.09
30618;BME280;17384;51.214;9.202;2023-07-09T00:03:17;99021.63;;;15.79;81.92
30618;BME280;17384;51.214;9.202;2023-07-09T00:05:46;99022.56;;;15.85;81.50
30618;BME280;17384;51.214;9.202;2023-07-09T00:08:27;99021.50;;;15.86;82.17
30618;BME280;17384;51.214;9.202;2023-07-09T00:10:57;99023.63;;;15.84;81.81
30618;BME280;17384;51.214;9.202;2023-07-09T00:13:24;99018.56;;;15.76;81.80
30618;BME280;17384;51.214;9.202;2023-07-09T00:15:51;99016.00;;;15.57;82.28
30618;BME280;17384;51.214;9.202;2023-07-09T00:18:17;99016.34;;;15.49;82.60
30618;BME280;17384;51.214;9.202;2023-07-09T00:20:43;99020.50;;;15.52;82.61
30618;BME280;17384;51.214;9.202;2023-07-09T00:23:12;99021.94;;;15.43;83.35
30618;BME280;17384;51.214;9.202;2023-07-09T00:25:40;99022.91;;;15.37;83.98
30618;BME280;17384;51.214;9.202;2023-07-09T00:28:16;99016.00;;;15.34;84.52
30618;BME280;17384;51.214;9.202;2023-07-09T00:30:44;99025.56;;;15.08;85.36
30618;BME280;17384;51.214;9.202;2023-07-09T00:33:12;99023.69;;;14.97;86.07
30618;BME280;17384;51.214;9.202;2023-07-09T00:35:42;99027.69;;;15.06;85.74
30618;BME280;17384;51.214;9.202;2023-07-09T00:38:20;99022.94;;;15.13;85.25
30618;BME280;17384;51.214;9.202;2023-07-09T00:40:53;99025.34;;;14.98;85.52
30618;BME280;17384;51.214;9.202;2023-07-09T00:43:22;99021.91;;;15.03;85.08
30618;BME280;17384;51.214;9.202;2023-07-09T00:46:14;99013.91;;;15.13;83.96
30618;BME280;17384;51.214;9.202;2023-07-09T00:48:41;99020.81;;;15.15;83.77
30618;BME280;17384;51.214;9.202;2023-07-09T00:51:13;99025.78;;;15.18;83.66
30618;BME280;17384;51.214;9.202;2023-07-09T00:53:43;99019.16;;;15.14;84.23
30618;BME280;17384;51.214;9.202;2023-07-09T00:56:20;99018.94;;;15.04;84.50
30618;BME280;17384;51.214;9.202;2023-07-09T00:58:51;99012.03;;;15.02;84.36
30618;BME280;17384;51.214;9.202;2023-07-09T01:01:18;99019.66;;;15.00;84.52
30618;BME280;17384;51.214;9.202;2023-07-09T01:03:51;99025.00;;;14.95;84.94
30618;BME280;17384;51.214;9.202;2023-07-09T01:06:23;99020.22;;;14.90;85.74
30618;BME280;17384;51.214;9.202;2023-07-09T01:08:51;99019.53;;;14.83;86.04
30618;BME280;17384;51.214;9.202;2023-07-09T01:11:21;99021.19;;;14.84;86.10
30618;BME280;17384;51.214;9.202;2023-07-09T01:13:57;99017.88;;;14.70;86.27
30618;BME280;17384;51.214;9.202;2023-07-09T01:16:27;99027.03;;;14.76;85.97
30618;BME280;17384;51.214;9.202;2023-07-09T01:18:54;99032.13;;;14.72;86.16
30618;BME280;17384;51.214;9.202;2023-07-09T01:21:23;99025.81;;;14.72;86.59
30618;BME280;17384;51.214;9.202;2023-07-09T01:23:49;99024.38;;;14.57;86.12
30618;BME280;17384;51.214;9.202;2023-07-09T01:26:21;99028.28;;;14.50;87.31
30618;BME280;17384;51.214;9.202;2023-07-09T01:28:47;99030.31;;;14.54;86.30
30618;BME280;17384;51.214;9.202;2023-07-09T01:31:14;99035.28;;;14.57;86.46
30618;BME280;17384;51.214;9.202;2023-07-09T01:33:43;99034.47;;;14.57;86.40
30618;BME280;17384;51.214;9.202;2023-07-09T01:36:12;99026.97;;;14.52;87.13
30618;BME280;17384;51.214;9.202;2023-07-09T01:38:40;99033.16;;;14.60;87.08
30618;BME280;17384;51.214;9.202;2023-07-09T01:41:06;99031.28;;;14.48;87.71
30618;BME280;17384;51.214;9.202;2023-07-09T01:43:33;99031.72;;;14.45;87.53
30618;BME280;17384;51.214;9.202;2023-07-09T01:45:58;99035.69;;;14.31;88.35
30618;BME280;17384;51.214;9.202;2023-07-09T01:48:25;99028.44;;;14.25;89.11
30618;BME280;17384;51.214;9.202;2023-07-09T01:50:52;99023.22;;;14.23;89.05
30618;BME280;17384;51.214;9.202;2023-07-09T01:53:21;99033.06;;;14.24;89.35
30618;BME280;17384;51.214;9.202;2023-07-09T01:55:52;99034.03;;;14.18;89.75
30618;BME280;17384;51.214;9.202;2023-07-09T01:58:20;99038.88;;;14.16;89.58
30618;BME280;17384;51.214;9.202;2023-07-09T02:00:50;99031.84;;;14.09;89.78
30618;BME280;17384;51.214;9.202;2023-07-09T02:03:15;99029.13;;;14.09;90.03
30618;BME280;17384;51.214;9.202;2023-07-09T02:05:44;99026.75;;;14.12;89.59
30618;BME280;17384;51.214;9.202;2023-07-09T02:08:09;99025.69;;;14.13;89.09
30618;BME280;17384;51.214;9.202;2023-07-09T02:10:34;99023.88;;;14.07;88.80
30618;BME280;17384;51.214;9.202;2023-07-09T02:13:00;99025.19;;;14.05;88.72
30618;BME280;17384;51.214;9.202;2023-07-09T02:15:26;99027.50;;;13.89;89.20
30618;BME280;17384;51.214;9.202;2023-07-09T02:17:51;99031.19;;;13.95;89.14
30618;BME280;17384;51.214;9.202;2023-07-09T02:20:17;99017.81;;;13.94;88.57
30618;BME280;17384;51.214;9.202;2023-07-09T02:22:44;99025.84;;;13.88;88.93
30618;BME280;17384;51.214;9.202;2023-07-09T02:25:09;99022.97;;;13.83;89.05
30618;BME280;17384;51.214;9.202;2023-07-09T02:27:35;99020.25;;;13.83;89.79
30618;BME280;17384;51.214;9.202;2023-07-09T02:30:02;99026.78;;;13.82;90.25
30618;BME280;17384;51.214;9.202;2023-07-09T02:32:27;99017.97;;;13.80;90.44
30618;BME280;17384;51.214;9.202;2023-07-09T02:34:54;99024.50;;;13.79;90.59
30618;BME280;17384;51.214;9.202;2023-07-09T02:37:22;99041.91;;;13.78;90.56
30618;BME280;17384;51.214;9.202;2023-07-09T02:39:48;99027.22;;;13.79;90.52
30618;BME280;17384;51.214;9.202;2023-07-09T02:42:16;99031.22;;;13.65;90.23
30618;BME280;17384;51.214;9.202;2023-07-09T02:44:43;99035.81;;;13.65;90.69
30618;BME280;17384;51.214;9.202;2023-07-09T02:47:10;99041.50;;;13.63;90.79
30618;BME280;17384;51.214;9.202;2023-07-09T02:49:36;99035.00;;;13.46;90.88
30618;BME280;17384;51.214;9.202;2023-07-09T02:52:02;99045.44;;;13.49;90.92
30618;BME280;17384;51.214;9.202;2023-07-09T02:54:28;99043.09;;;13.52;90.28
30618;BME280;17384;51.214;9.202;2023-07-09T02:56:53;99041.16;;;13.71;89.88
30618;BME280;17384;51.214;9.202;2023-07-09T02:59:19;99042.00;;;13.72;89.69
30618;BME280;17384;51.214;9.202;2023-07-09T03:01:45;99040.44;;;13.64;90.22
30618;BME280;17384;51.214;9.202;2023-07-09T03:04:13;99055.59;;;13.42;90.97
30618;BME280;17384;51.214;9.202;2023-07-09T03:06:38;99048.63;;;13.46;91.42
30618;BME280;17384;51.214;9.202;2023-07-09T03:09:05;99070.19;;;13.47;90.83
30618;BME280;17384;51.214;9.202;2023-07-09T03:11:33;99058.53;;;13.40;90.94
30618;BME280;17384;51.214;9.202;2023-07-09T03:14:00;99072.56;;;13.26;91.16
30618;BME280;17384;51.214;9.202;2023-07-09T03:16:27;99072.72;;;13.31;91.01
30618;BME280;17384;51.214;9.202;2023-07-09T03:18:53;99069.91;;;13.37;90.26
30618;BME280;17384;51.214;9.202;2023-07-09T03:21:20;99085.13;;;13.45;90.10
30618;BME280;17384;51.214;9.202;2023-07-09T03:23:46;99077.41;;;13.60;89.80
30618;BME280;17384;51.214;9.202;2023-07-09T03:26:12;99096.78;;;13.52;89.83
30618;BME280;17384;51.214;9.202;2023-07-09T03:28:37;99090.34;;;13.46;90.57
30618;BME280;17384;51.214;9.202;2023-07-09T03:31:03;99097.47;;;13.47;90.58
30618;BME280;17384;51.214;9.202;2023-07-09T03:33:28;99090.56;;;13.45;90.48
30618;BME280;17384;51.214;9.202;2023-07-09T03:35:54;99074.44;;;13.62;89.76
30618;BME280;17384;51.214;9.202;2023-07-09T03:38:20;99087.03;;;13.63;89.72
30618;BME280;17384;51.214;9.202;2023-07-09T03:40:50;99098.59;;;13.58;90.24
30618;BME280;17384;51.214;9.202;2023-07-09T03:43:15;99082.94;;;13.53;90.42
30618;BME280;17384;51.214;9.202;2023-07-09T03:45:41;99098.69;;;13.51;90.85
30618;BME280;17384;51.214;9.202;2023-07-09T03:48:07;99101.00;;;13.48;90.45
30618;BME280;17384;51.214;9.202;2023-07-09T03:50:33;99104.97;;;13.52;90.66
30618;BME280;17384;51.214;9.202;2023-07-09T03:52:58;99106.84;;;13.51;90.40
30618;BME280;17384;51.214;9.202;2023-07-09T03:55:25;99095.72;;;13.53;90.51
30618;BME280;17384;51.214;9.202;2023-07-09T03:57:53;99103.66;;;13.54;90.53
30618;BME280;17384;51.214;9.202;2023-07-09T04:00:18;99099.22;;;13.60;90.62
30618;BME280;17384;51.214;9.202;2023-07-09T04:02:44;99092.16;;;13.52;90.38
30618;BME280;17384;51.214;9.202;2023-07-09T04:05:09;99096.47;;;13.60;90.87
30618;BME280;17384;51.214;9.202;2023-07-09T04:07:36;99106.00;;;13.69;90.47
30618;BME280;17384;51.214;9.202;2023-07-09T04:10:02;99100.47;;;13.76;90.19
30618;BME280;17384;51.214;9.202;2023-07-09T04:12:27;99101.00;;;13.84;89.46
30618;BME280;17384;51.214;9.202;2023-07-09T04:14:53;99104.34;;;13.86;89.02
30618;BME280;17384;51.214;9.202;2023-07-09T04:17:18;99103.06;;;13.89;89.14
30618;BME280;17384;51.214;9.202;2023-07-09T04:19:44;99096.44;;;13.97;88.88
30618;BME280;17384;51.214;9.202;2023-07-09T04:22:12;99103.47;;;14.04;89.00
30618;BME280;17384;51.214;9.202;2023-07-09T04:24:38;99096.88;;;14.12;89.07
30618;BME280;17384;51.214;9.202;2023-07-09T04:27:04;99095.72;;;14.19;88.93
30618;BME280;17384;51.214;9.202;2023-07-09T04:29:30;99097.88;;;14.29;88.93
30618;BME280;17384;51.214;9.202;2023-07-09T04:31:56;99096.47;;;14.38;88.07
30618;BME280;17384;51.214;9.202;2023-07-09T04:34:22;99091.56;;;14.47;87.96
30618;BME280;17384;51.214;9.202;2023-07-09T04:36:48;99094.16;;;14.53;87.57
30618;BME280;17384;51.214;9.202;2023-07-09T04:39:13;99092.31;;;14.66;87.52
30618;BME280;17384;51.214;9.202;2023-07-09T04:41:40;99091.50;;;14.77;87.20
30618;BME280;17384;51.214;9.202;2023-07-09T04:44:05;99102.44;;;14.88;87.01
30618;BME280;17384;51.214;9.202;2023-07-09T04:46:31;99096.75;;;15.02;86.91
30618;BME280;17384;51.214;9.202;2023-07-09T04:48:56;99095.19;;;15.17;84.95
30618;BME280;17384;51.214;9.202;2023-07-09T04:51:22;99097.69;;;15.31;85.11
30618;BME280;17384;51.214;9.202;2023-07-09T04:53:47;99094.22;;;15.47;86.06
30618;BME280;17384;51.214;9.202;2023-07-09T04:56:17;99098.97;;;15.51;86.34
30618;BME280;17384;51.214;9.202;2023-07-09T04:58:42;99089.69;;;15.41;86.30
30618;BME280;17384;51.214;9.202;2023-07-09T05:01:08;99094.47;;;15.57;86.62
30618;BME280;17384;51.214;9.202;2023-07-09T05:03:33;99097.75;;;15.82;84.28
30618;BME280;17384;51.214;9.202;2023-07-09T05:05:59;99088.88;;;16.04;83.71
30618;BME280;17384;51.214;9.202;2023-07-09T05:08:24;99095.31;;;16.26;82.58
30618;BME280;17384;51.214;9.202;2023-07-09T05:10:51;99096.84;;;16.50;82.58
30618;BME280;17384;51.214;9.202;2023-07-09T05:13:18;99101.88;;;16.70;81.32
30618;BME280;17384;51.214;9.202;2023-07-09T05:15:45;99105.81;;;16.91;80.22
30618;BME280;17384;51.214;9.202;2023-07-09T05:18:13;99105.63;;;17.14;79.67
30618;BME280;17384;51.214;9.202;2023-07-09T05:20:39;99105.94;;;17.35;78.17
30618;BME280;17384;51.214;9.202;2023-07-09T05:23:04;99109.75;;;17.50;76.17
30618;BME280;17384;51.214;9.202;2023-07-09T05:25:30;99111.38;;;17.68;76.33
30618;BME280;17384;51.214;9.202;2023-07-09T05:27:55;99112.41;;;17.84;76.82
30618;BME280;17384;51.214;9.202;2023-07-09T05:30:21;99106.28;;;17.99;76.67
30618;BME280;17384;51.214;9.202;2023-07-09T05:32:47;99109.78;;;18.16;75.45
30618;BME280;17384;51.214;9.202;2023-07-09T05:35:12;99103.66;;;18.36;73.75
30618;BME280;17384;51.214;9.202;2023-07-09T05:37:38;99103.38;;;18.59;73.06
30618;BME280;17384;51.214;9.202;2023-07-09T05:40:08;99107.16;;;18.80;71.56
30618;BME280;17384;51.214;9.202;2023-07-09T05:42:34;99102.38;;;19.02;70.30
30618;BME280;17384;51.214;9.202;2023-07-09T05:45:00;99097.03;;;19.22;67.53
30618;BME280;17384;51.214;9.202;2023-07-09T05:47:26;99096.69;;;19.51;67.59
30618;BME280;17384;51.214;9.202;2023-07-09T05:49:52;99099.84;;;19.75;66.42
30618;BME280;17384;51.214;9.202;2023-07-09T05:52:19;99106.56;;;19.99;66.98
30618;BME280;17384;51.214;9.202;2023-07-09T05:54:45;99101.41;;;20.18;66.24
30618;BME280;17384;51.214;9.202;2023-07-09T05:57:11;99095.72;;;20.40;65.13
30618;BME280;17384;51.214;9.202;2023-07-09T05:59:36;99096.00;;;20.58;64.90
30618;BME280;17384;51.214;9.202;2023-07-09T06:02:03;99094.94;;;20.85;64.71
30618;BME280;17384;51.214;9.202;2023-07-09T06:04:29;99098.25;;;21.02;64.60
30618;BME280;17384;51.214;9.202;2023-07-09T06:06:56;99103.75;;;21.17;64.27
30618;BME280;17384;51.214;9.202;2023-07-09T06:09:22;99112.06;;;21.33;63.78
30618;BME280;17384;51.214;9.202;2023-07-09T06:11:47;99106.78;;;21.51;62.58
30618;BME280;17384;51.214;9.202;2023-07-09T06:14:13;99104.50;;;21.69;61.48
30618;BME280;17384;51.214;9.202;2023-07-09T06:16:38;99116.59;;;21.93;60.98
30618;BME280;17384;51.214;9.202;2023-07-09T06:19:04;99109.31;;;22.22;60.37
30618;BME280;17384;51.214;9.202;2023-07-09T06:21:29;99112.75;;;22.48;60.53
30618;BME280;17384;51.214;9.202;2023-07-09T06:23:55;99119.19;;;22.83;59.11
30618;BME280;17384;51.214;9.202;2023-07-09T06:26:21;99120.63;;;23.14;58.03
30618;BME280;17384;51.214;9.202;2023-07-09T06:28:46;99107.69;;;23.34;57.61
30618;BME280;17384;51.214;9.202;2023-07-09T06:31:12;99119.09;;;23.61;56.70
30618;BME280;17384;51.214;9.202;2023-07-09T06:33:37;99129.88;;;23.86;55.59
30618;BME280;17384;51.214;9.202;2023-07-09T06:36:03;99129.44;;;24.03;54.47
30618;BME280;17384;51.214;9.202;2023-07-09T06:38:30;99128.69;;;24.40;54.04
30618;BME280;17384;51.214;9.202;2023-07-09T06:40:57;99135.44;;;24.72;51.92
30618;BME280;17384;51.214;9.202;2023-07-09T06:43:23;99130.81;;;24.86;50.19
30618;BME280;17384;51.214;9.202;2023-07-09T06:45:54;99137.03;;;25.15;50.29
30618;BME280;17384;51.214;9.202;2023-07-09T06:48:20;99130.09;;;25.32;50.70
30618;BME280;17384;51.214;9.202;2023-07-09T06:50:46;99128.88;;;25.38;49.77
30618;BME280;17384;51.214;9.202;2023-07-09T06:53:12;99130.22;;;25.54;50.99
30618;BME280;17384;51.214;9.202;2023-07-09T06:55:37;99132.50;;;25.52;52.76
30618;BME280;17384;51.214;9.202;2023-07-09T06:58:03;99133.81;;;25.87;50.93
30618;BME280;17384;51.214;9.202;2023-07-09T07:00:28;99130.41;;;26.04;50.09
30618;BME280;17384;51.214;9.202;2023-07-09T07:02:54;99147.13;;;26.31;49.71
30618;BME280;17384;51.214;9.202;2023-07-09T07:05:20;99144.59;;;26.71;47.93
30618;BME280;17384;51.214;9.202;2023-07-09T07:07:45;99138.97;;;26.98;46.83
30618;BME280;17384;51.214;9.202;2023-07-09T07:10:10;99133.78;;;27.05;47.33
30618;BME280;17384;51.214;9.202;2023-07-09T07:12:44;99135.59;;;27.10;46.38
30618;BME280;17384;51.214;9.202;2023-07-09T07:15:11;99161.22;;;26.84;47.98
30618;BME280;17384;51.214;9.202;2023-07-09T07:17:37;99121.81;;;26.69;47.42
30618;BME280;17384;51.214;9.202;2023-07-09T07:20:02;99116.38;;;26.86;45.77
30618;BME280;17384;51.214;9.202;2023-07-09T07:22:28;99121.19;;;27.08;44.83
30618;BME280;17384;51.214;9.202;2023-07-09T07:24:53;99121.94;;;27.22;42.02
30618;BME280;17384;51.214;9.202;2023-07-09T07:27:19;99115.66;;;27.61;42.01
30618;BME280;17384;51.214;9.202;2023-07-09T07:29:44;99114.00;;;28.00;42.27
30618;BME280;17384;51.214;9.202;2023-07-09T07:32:10;99113.41;;;28.20;42.28
30618;BME280;17384;51.214;9.202;2023-07-09T07:34:36;99117.09;;;28.46;42.61
30618;BME280;17384;51.214;9.202;2023-07-09T07:37:01;99121.38;;;28.52;41.83
30618;BME280;17384;51.214;9.202;2023-07-09T07:39:27;99110.91;;;28.67;40.30
30618;BME280;17384;51.214;9.202;2023-07-09T07:41:52;99104.34;;;28.80;40.18
30618;BME280;17384;51.214;9.202;2023-07-09T07:44:18;99117.84;;;28.95;39.81
30618;BME280;17384;51.214;9.202;2023-07-09T07:46:43;99109.13;;;29.05;39.27
30618;BME280;17384;51.214;9.202;2023-07-09T07:49:10;99112.72;;;28.71;40.72
30618;BME280;17384;51.214;9.202;2023-07-09T07:51:35;99120.09;;;28.76;40.72
30618;BME280;17384;51.214;9.202;2023-07-09T07:54:01;99122.88;;;28.58;40.82
30618;BME280;17384;51.214;9.202;2023-07-09T07:56:26;99124.41;;;28.16;42.76
30618;BME280;17384;51.214;9.202;2023-07-09T07:58:52;99122.88;;;28.41;41.75
30618;BME280;17384;51.214;9.202;2023-07-09T08:01:17;99121.28;;;28.18;42.49
30618;BME280;17384;51.214;9.202;2023-07-09T08:03:42;99110.53;;;27.85;44.09
30618;BME280;17384;51.214;9.202;2023-07-09T08:06:08;99109.75;;;28.02;43.51
30618;BME280;17384;51.214;9.202;2023-07-09T08:08:33;99105.13;;;28.46;43.19
30618;BME280;17384;51.214;9.202;2023-07-09T08:11:04;99102.34;;;28.80;41.75
30618;BME280;17384;51.214;9.202;2023-07-09T08:13:31;99104.28;;;28.37;41.40
30618;BME280;17384;51.214;9.202;2023-07-09T08:15:58;99103.22;;;28.98;40.97
30618;BME280;17384;51.214;9.202;2023-07-09T08:18:23;99093.47;;;29.30;40.62
30618;BME280;17384;51.214;9.202;2023-07-09T08:20:49;99101.88;;;29.21;40.37
30618;BME280;17384;51.214;9.202;2023-07-09T08:23:14;99105.50;;;29.13;41.14
30618;BME280;17384;51.214;9.202;2023-07-09T08:25:40;99097.28;;;29.25;41.00
30618;BME280;17384;51.214;9.202;2023-07-09T08:28:05;99090.16;;;29.54;40.92
30618;BME280;17384;51.214;9.202;2023-07-09T08:30:31;99094.34;;;29.77;38.92
30618;BME280;17384;51.214;9.202;2023-07-09T08:32:56;99093.78;;;29.28;40.50
30618;BME280;17384;51.214;9.202;2023-07-09T08:35:23;99098.75;;;29.06;40.53
30618;BME280;17384;51.214;9.202;2023-07-09T08:37:48;99090.69;;;28.78;41.86
30618;BME280;17384;51.214;9.202;2023-07-09T08:40:16;99096.78;;;29.15;40.43
30618;BME280;17384;51.214;9.202;2023-07-09T08:42:46;99099.03;;;29.39;41.01
30618;BME280;17384;51.214;9.202;2023-07-09T08:48:31;99086.38;;;29.96;38.90
30618;BME280;17384;51.214;9.202;2023-07-09T08:51:04;99088.47;;;30.08;39.29
30618;BME280;17384;51.214;9.202;2023-07-09T08:53:39;99093.72;;;30.39;40.50
30618;BME280;17384;51.214;9.202;2023-07-09T08:56:09;99082.34;;;30.15;38.89
30618;BME280;17384;51.214;9.202;2023-07-09T08:58:36;99093.38;;;29.73;40.20
30618;BME280;17384;51.214;9.202;2023-07-09T09:01:05;99088.94;;;29.72;40.03
30618;BME280;17384;51.214;9.202;2023-07-09T09:03:47;99086.69;;;29.95;40.24
30618;BME280;17384;51.214;9.202;2023-07-09T09:06:20;99092.28;;;29.57;40.04
30618;BME280;17384;51.214;9.202;2023-07-09T09:09:17;99086.00;;;29.69;41.64
30618;BME280;17384;51.214;9.202;2023-07-09T09:12:09;99091.47;;;30.03;41.26
30618;BME280;17384;51.214;9.202;2023-07-09T09:14:39;99095.94;;;29.87;41.19
30618;BME280;17384;51.214;9.202;2023-07-09T09:17:18;99090.16;;;30.30;39.38
30618;BME280;17384;51.214;9.202;2023-07-09T09:19:53;99090.22;;;30.72;38.59
30618;BME280;17384;51.214;9.202;2023-07-09T09:22:46;99099.13;;;30.44;38.29
30618;BME280;17384;51.214;9.202;2023-07-09T09:25:27;99097.88;;;30.62;37.71
30618;BME280;17384;51.214;9.202;2023-07-09T09:27:54;99102.59;;;31.12;38.17
30618;BME280;17384;51.214;9.202;2023-07-09T09:30:21;99100.22;;;31.47;37.89
30618;BME280;17384;51.214;9.202;2023-07-09T09:32:57;99089.59;;;31.86;36.88
30618;BME280;17384;51.214;9.202;2023-07-09T09:35:34;99084.00;;;31.98;35.92
30618;BME280;17384;51.214;9.202;2023-07-09T09:38:00;99083.69;;;32.64;36.39
30618;BME280;17384;51.214;9.202;2023-07-09T09:40:29;99090.31;;;32.19;34.82
30618;BME280;17384;51.214;9.202;2023-07-09T09:42:58;99081.75;;;32.16;35.33
30618;BME280;17384;51.214;9.202;2023-07-09T09:45:37;99078.00;;;32.36;34.99
30618;BME280;17384;51.214;9.202;2023-07-09T09:48:27;99076.31;;;32.59;34.96
30618;BME280;17384;51.214;9.202;2023-07-09T09:50:53;99077.78;;;32.93;33.61
30618;BME280;17384;51.214;9.202;2023-07-09T09:53:23;99082.63;;;32.69;33.78
30618;BME280;17384;51.214;9.202;2023-07-09T09:55:51;99082.41;;;32.74;33.61
30618;BME280;17384;51.214;9.202;2023-07-09T09:58:18;99083.91;;;32.71;33.12
30618;BME280;17384;51.214;9.202;2023-07-09T10:00:51;99085.50;;;32.32;35.07
30618;BME280;17384;51.214;9.202;2023-07-09T10:03:17;99090.03;;;32.61;34.77
30618;BME280;17384;51.214;9.202;2023-07-09T10:05:55;99089.34;;;33.04;33.83
30618;BME280;17384;51.214;9.202;2023-07-09T10:11:28;99082.72;;;34.00;33.33
30618;BME280;17384;51.214;9.202;2023-07-09T10:14:01;99087.22;;;33.73;31.85
30618;BME280;17384;51.214;9.202;2023-07-09T10:16:32;99081.34;;;34.09;31.32
30618;BME280;17384;51.214;9.202;2023-07-09T10:19:21;99080.38;;;33.26;32.74
30618;BME280;17384;51.214;9.202;2023-07-09T10:22:00;99086.16;;;32.66;33.46
30618;BME280;17384;51.214;9.202;2023-07-09T10:24:51;99098.94;;;32.75;32.79
30618;BME280;17384;51.214;9.202;2023-07-09T10:27:25;99087.38;;;32.92;32.85
30618;BME280;17384;51.214;9.202;2023-07-09T10:40:48;99082.00;;;34.18;33.13
30618;BME280;17384;51.214;9.202;2023-07-09T10:44:00;99075.47;;;34.49;30.47
30618;BME280;17384;51.214;9.202;2023-07-09T10:46:31;99081.34;;;35.14;30.21
30618;BME280;17384;51.214;9.202;2023-07-09T10:49:00;99076.03;;;35.51;30.41
30618;BME280;17384;51.214;9.202;2023-07-09T10:51:39;99076.06;;;35.97;29.39
30618;BME280;17384;51.214;9.202;2023-07-09T10:54:42;99071.81;;;35.03;29.62
30618;BME280;17384;51.214;9.202;2023-07-09T10:57:19;99072.88;;;34.95;30.01
30618;BME280;17384;51.214;9.202;2023-07-09T10:59:49;99069.47;;;34.86;31.49
30618;BME280;17384;51.214;9.202;2023-07-09T11:04:49;99070.34;;;35.09;30.69
30618;BME280;17384;51.214;9.202;2023-07-09T11:07:22;99058.72;;;35.76;29.95
30618;BME280;17384;51.214;9.202;2023-07-09T11:12:29;99056.53;;;35.66;30.02
30618;BME280;17384;51.214;9.202;2023-07-09T11:15:03;99050.13;;;35.46;29.25
30618;BME280;17384;51.214;9.202;2023-07-09T11:17:30;99048.63;;;35.98;29.45
30618;BME280;17384;51.214;9.202;2023-07-09T11:19:59;99051.78;;;35.92;28.88
30618;BME280;17384;51.214;9.202;2023-07-09T11:22:39;99053.47;;;35.74;29.24
30618;BME280;17384;51.214;9.202;2023-07-09T11:25:15;99047.00;;;35.74;28.65
30618;BME280;17384;51.214;9.202;2023-07-09T11:27:54;99053.25;;;35.83;29.39
30618;BME280;17384;51.214;9.202;2023-07-09T11:30:28;99039.00;;;36.25;29.10
30618;BME280;17384;51.214;9.202;2023-07-09T11:32:57;99041.66;;;35.91;29.09
30618;BME280;17384;51.214;9.202;2023-07-09T11:35:28;99039.56;;;36.11;28.85
30618;BME280;17384;51.214;9.202;2023-07-09T11:37:55;99040.16;;;36.77;28.44
30618;BME280;17384;51.214;9.202;2023-07-09T11:40:22;99026.16;;;36.05;28.36
30618;BME280;17384;51.214;9.202;2023-07-09T11:42:53;99030.69;;;36.13;28.58
30618;BME280;17384;51.214;9.202;2023-07-09T11:45:31;99023.97;;;36.21;29.44
30618;BME280;17384;51.214;9.202;2023-07-09T11:50:45;99022.22;;;36.13;30.63
30618;BME280;17384;51.214;9.202;2023-07-09T11:53:41;99021.03;;;36.70;29.80
30618;BME280;17384;51.214;9.202;2023-07-09T11:56:09;99030.47;;;37.11;28.63
30618;BME280;17384;51.214;9.202;2023-07-09T11:58:35;99022.97;;;37.26;28.47
30618;BME280;17384;51.214;9.202;2023-07-09T12:01:01;99023.50;;;37.79;27.29
30618;BME280;17384;51.214;9.202;2023-07-09T12:03:30;99025.97;;;37.07;27.57
30618;BME280;17384;51.214;9.202;2023-07-09T12:06:03;99014.28;;;36.48;28.86
30618;BME280;17384;51.214;9.202;2023-07-09T12:08:33;99018.16;;;36.97;27.28
30618;BME280;17384;51.214;9.202;2023-07-09T12:10:59;99006.59;;;37.09;27.61
30618;BME280;17384;51.214;9.202;2023-07-09T12:13:25;99004.50;;;36.42;28.40
30618;BME280;17384;51.214;9.202;2023-07-09T12:15:50;99006.16;;;36.73;28.49
30618;BME280;17384;51.214;9.202;2023-07-09T12:18:16;98994.38;;;37.01;27.58
30618;BME280;17384;51.214;9.202;2023-07-09T12:20:50;98993.50;;;36.97;28.57
30618;BME280;17384;51.214;9.202;2023-07-09T12:23:27;98994.97;;;37.58;28.14
30618;BME280;17384;51.214;9.202;2023-07-09T12:25:54;98986.72;;;38.45;26.70
30618;BME280;17384;51.214;9.202;2023-07-09T12:28:21;98983.34;;;38.18;25.74
30618;BME280;17384;51.214;9.202;2023-07-09T12:30:48;98985.00;;;37.31;29.96
30618;BME280;17384;51.214;9.202;2023-07-09T12:33:20;98982.50;;;36.55;27.91
30618;BME280;17384;51.214;9.202;2023-07-09T12:35:47;98981.88;;;35.63;26.17
30618;BME280;17384;51.214;9.202;2023-07-09T12:38:20;98974.94;;;36.33;25.89
30618;BME280;17384;51.214;9.202;2023-07-09T12:40:51;98967.06;;;36.79;24.67
30618;BME280;17384;51.214;9.202;2023-07-09T12:43:25;98961.97;;;36.95;24.96
30618;BME280;17384;51.214;9.202;2023-07-09T12:45:52;98960.91;;;37.47;24.38
30618;BME280;17384;51.214;9.202;2023-07-09T12:48:25;98946.34;;;37.49;22.58
30618;BME280;17384;51.214;9.202;2023-07-09T12:50:54;98956.91;;;36.44;23.05
30618;BME280;17384;51.214;9.202;2023-07-09T12:53:20;98945.63;;;36.78;23.79
30618;BME280;17384;51.214;9.202;2023-07-09T12:55:48;98941.78;;;36.97;24.52
30618;BME280;17384;51.214;9.202;2023-07-09T12:58:20;98933.84;;;37.09;23.89
30618;BME280;17384;51.214;9.202;2023-07-09T13:00:54;98933.63;;;37.76;24.59
30618;BME280;17384;51.214;9.202;2023-07-09T13:03:24;98935.31;;;37.84;23.27
30618;BME280;17384;51.214;9.202;2023-07-09T13:05:54;98921.75;;;37.60;24.74
30618;BME280;17384;51.214;9.202;2023-07-09T13:08:20;98924.06;;;37.95;24.35
30618;BME280;17384;51.214;9.202;2023-07-09T13:10:46;98923.31;;;38.02;24.23
30618;BME280;17384;51.214;9.202;2023-07-09T13:13:16;98917.41;;;38.35;24.62
30618;BME280;17384;51.214;9.202;2023-07-09T13:15:44;98920.72;;;37.79;23.76
30618;BME280;17384;51.214;9.202;2023-07-09T13:18:14;98915.31;;;37.15;25.78
30618;BME280;17384;51.214;9.202;2023-07-09T13:20:42;98910.22;;;36.57;24.29
30618;BME280;17384;51.214;9.202;2023-07-09T13:23:19;98896.19;;;36.68;25.39
30618;BME280;17384;51.214;9.202;2023-07-09T13:25:46;98888.72;;;36.49;25.55
30618;BME280;17384;51.214;9.202;2023-07-09T13:28:20;98898.72;;;36.13;27.18
30618;BME280;17384;51.214;9.202;2023-07-09T13:30:48;98891.22;;;35.42;26.58
30618;BME280;17384;51.214;9.202;2023-07-09T13:33:16;98900.25;;;36.04;24.16